Çanakkale Airport

LTBH · Canakkale, Turcja

Historia METAR LTBH · Çanakkale Airport

Poniżej widzisz METAR-y z ostatnich kilku dni. Wybierz rok, aby przeglądać starsze METAR-y, począwszy od roku 2007.

29 maja 2024

Czas Kod Pogoda Temp. Widoczność Sufit Wiatr METAR/SPECI
13:50
V
24 °C 10 km+ - 220° 220° 6 kt METAR LTBH 291050Z 22006KT 170V260 9999 FEW035 24/10 Q1011
13:50
V
24 °C 10 km+ - 220° 220° 6 kt METAR LTBH 291050Z 22006KT 170V260 9999 FEW035 24/10 Q1011
12:50
V
22 °C 10 km+ - 230° 230° 7 kt METAR LTBH 290950Z 23007KT 200V260 9999 FEW035 22/11 Q1012
11:50
V
24 °C 10 km+ - Var Var 3 kt METAR LTBH 290850Z VRB03KT 9999 FEW035 24/09 Q1012
10:50
V
22 °C 10 km+ - 330° 330° 4 kt METAR LTBH 290750Z 33004KT 250V030 9999 FEW035 SCT100 22/12 Q1012
09:50
V
20 °C 10 km+ 10.000 ft 320° 320° 2 kt METAR LTBH 290650Z 32002KT 9999 FEW035 BKN100 20/13 Q1013
08:50
V
18 °C 10 km+ - 020° 020° 3 kt METAR LTBH 290550Z 02003KT 340V050 CAVOK 18/11 Q1013
07:50
V
16 °C 10 km+ - 020° 020° 5 kt METAR LTBH 290450Z 02005KT CAVOK 16/11 Q1013
06:50
V
13 °C 10 km+ - 010° 010° 3 kt METAR LTBH 290350Z 01003KT CAVOK 13/10 Q1013
05:50
V
12 °C 10 km+ - 020° 020° 4 kt METAR LTBH 290250Z 02004KT CAVOK 12/10 Q1013
04:50
V
12 °C 10 km+ - 020° 020° 4 kt METAR LTBH 290150Z 02004KT CAVOK 12/10 Q1013
03:50
V
12 °C 10 km+ - 020° 020° 4 kt METAR LTBH 290050Z 02004KT CAVOK 12/10 Q1013
02:50
V
13 °C 10 km+ - 020° 020° 4 kt METAR LTBH 282350Z 02004KT CAVOK 13/11 Q1013
01:50
V
14 °C 10 km+ - 020° 020° 5 kt METAR LTBH 282250Z 02005KT CAVOK 14/11 Q1014
00:50
V
14 °C 10 km+ - 020° 020° 5 kt METAR LTBH 282150Z 02005KT CAVOK 14/12 Q1014

28 maja 2024

Czas Kod Pogoda Temp. Widoczność Sufit Wiatr METAR/SPECI
23:50
V
14 °C 10 km+ - 020° 020° 4 kt METAR LTBH 282050Z 02004KT CAVOK 14/11 Q1014
22:50
V
16 °C 10 km+ - 060° 060° 2 kt METAR LTBH 281950Z 06002KT CAVOK 16/12 Q1014
21:50
V
17 °C 10 km+ - Var Var 2 kt METAR LTBH 281850Z VRB02KT CAVOK 17/12 Q1013
20:50
V
19 °C 10 km+ - 040° 040° 3 kt METAR LTBH 281750Z 04003KT 300V110 CAVOK 19/12 Q1013
19:50
V
21 °C 10 km+ - 300° 300° 6 kt METAR LTBH 281650Z 30006KT 230V360 CAVOK 21/12 Q1013
18:50
V
23 °C 10 km+ - 300° 300° 7 kt METAR LTBH 281550Z 30007KT 250V350 CAVOK 23/11 Q1012
17:50
V
24 °C 10 km+ - 310° 310° 7 kt METAR LTBH 281450Z 31007KT 270V360 9999 FEW035 24/10 Q1012
16:50
V
25 °C 10 km+ - Var Var 5 kt METAR LTBH 281350Z VRB05KT 9999 FEW035 25/09 Q1012
15:50
V
24 °C 10 km+ - Var Var 6 kt METAR LTBH 281250Z VRB06KT 9999 FEW035 24/08 Q1013
14:50
V
24 °C 10 km+ - 020° 020° 7 kt METAR LTBH 281150Z 02007KT 280V060 9999 FEW035 24/07 Q1014
13:50
V
23 °C 10 km+ - 010° 010° 8 kt METAR LTBH 281050Z 01008KT 9999 FEW035 23/07 Q1014
12:50
V
23 °C 10 km+ - 010° 010° 9 kt METAR LTBH 280950Z 01009KT 330V040 9999 FEW035 23/08 Q1014
11:50
V
22 °C 10 km+ - 360° 360° 10 kt METAR LTBH 280850Z 36010KT 330V030 9999 FEW035 22/07 Q1015
10:50
V
21 °C 10 km+ - 360° 360° 9 kt METAR LTBH 280750Z 36009KT 300V030 CAVOK 21/08 Q1015
09:50
V
19 °C 10 km+ - 020° 020° 10 kt METAR LTBH 280650Z 02010KT 340V040 CAVOK 19/10 Q1015
08:50
V
18 °C 10 km+ - 020° 020° 7 kt METAR LTBH 280550Z 02007KT 340V050 CAVOK 18/11 Q1015
07:50
V
14 °C 10 km+ - 030° 030° 4 kt METAR LTBH 280450Z 03004KT CAVOK 14/10 Q1015
06:50
V
12 °C 10 km+ - 020° 020° 3 kt METAR LTBH 280350Z 02003KT CAVOK 12/09 Q1015
05:50
V
11 °C 10 km+ - 010° 010° 4 kt METAR LTBH 280250Z 01004KT CAVOK 11/09 Q1015
04:50
V
11 °C 10 km+ - 020° 020° 6 kt METAR LTBH 280150Z 02006KT CAVOK 11/09 Q1015
03:50
V
11 °C 10 km+ - 030° 030° 4 kt METAR LTBH 280050Z 03004KT CAVOK 11/09 Q1015
02:50
V
13 °C 10 km+ - 010° 010° 4 kt METAR LTBH 272350Z 01004KT CAVOK 13/09 Q1016
01:50
V
13 °C 10 km+ - 040° 040° 4 kt METAR LTBH 272250Z 04004KT CAVOK 13/09 Q1016
00:50
V
12 °C 10 km+ - 020° 020° 4 kt METAR LTBH 272150Z 02004KT CAVOK 12/09 Q1016

27 maja 2024

Czas Kod Pogoda Temp. Widoczność Sufit Wiatr METAR/SPECI
23:50
V
14 °C 10 km+ - 020° 020° 3 kt METAR LTBH 272050Z 02003KT CAVOK 14/10 Q1016
22:50
V
16 °C 10 km+ - 020° 020° 1 kt METAR LTBH 271950Z 02001KT CAVOK 16/11 Q1016
21:50
V
17 °C 10 km+ - Var Var 2 kt METAR LTBH 271850Z VRB02KT CAVOK 17/12 Q1015
20:50
V
20 °C 10 km+ 20.000 ft 360° 360° 6 kt METAR LTBH 271750Z 36006KT 310V030 9999 FEW035 BKN200 20/10 Q1015
19:50
V
21 °C 10 km+ 20.000 ft 360° 360° 8 kt METAR LTBH 271650Z 36008KT 9999 FEW035 BKN200 21/11 Q1015
18:50
V
21 °C 10 km+ 20.000 ft 010° 010° 10 kt METAR LTBH 271550Z 01010KT 320V030 9999 FEW035 BKN200 21/12 Q1014
17:50
V
24 °C 10 km+ - 010° 010° 11 kt METAR LTBH 271450Z 01011KT 340V040 9999 FEW035 SCT200 24/09 Q1014
16:50
V
24 °C 10 km+ - 030° 030° 13 kt METAR LTBH 271350Z 03013KT 9999 FEW035 SCT200 24/07 Q1015
15:50
V
25 °C 10 km+ - 030° 030° 12 kt METAR LTBH 271250Z 03012KT 350V050 9999 FEW035 SCT200 25/07 Q1015
14:50
V
24 °C 10 km+ - 010° 010° 12 kt METAR LTBH 271150Z 01012KT 9999 FEW035 SCT200 24/07 Q1016
13:50
V
23 °C 10 km+ - 360° 360° 9 kt METAR LTBH 271050Z 36009KT 320V030 9999 FEW035 SCT200 23/07 Q1016
12:50
V
22 °C 10 km+ - 360° 360° 12 kt METAR LTBH 270950Z 36012KT 330V030 9999 FEW035 SCT200 22/07 Q1016
11:50
V
22 °C 10 km+ - 010° 010° 16 kt METAR LTBH 270850Z 01016KT 9999 FEW035 SCT200 22/07 Q1016
10:50
V
20 °C 10 km+ - 360° 360° 15 kt METAR LTBH 270750Z 36015KT 9999 FEW035 SCT200 20/10 Q1016
09:50
V
19 °C 10 km+ - 360° 360° 14 kt METAR LTBH 270650Z 36014KT 9999 FEW035 SCT200 19/11 Q1016
08:50
V
17 °C 10 km+ - 010° 010° 15 kt METAR LTBH 270550Z 01015KT 9999 FEW035 SCT200 17/11 Q1017
Zgłoś zmianę